sensor_id;sensor_type;location;lat;lon;timestamp;pressure;altitude;pressure_sealevel;temperature;humidity
41254;BME280;26987;59.928;30.306;2023-12-14T00:00:59;101064.50;;;-3.68;100.00
41254;BME280;26987;59.928;30.306;2023-12-14T00:03:27;101092.59;;;-3.57;100.00
41254;BME280;26987;59.928;30.306;2023-12-14T00:05:56;101098.25;;;-3.50;100.00
41254;BME280;26987;59.928;30.306;2023-12-14T00:08:24;101092.38;;;-3.53;100.00
41254;BME280;26987;59.928;30.306;2023-12-14T00:10:52;100954.41;;;-4.46;100.00
41254;BME280;26987;59.928;30.306;2023-12-14T00:13:20;101057.38;;;-3.78;100.00
41254;BME280;26987;59.928;30.306;2023-12-14T00:15:48;101104.97;;;-3.46;100.00
41254;BME280;26987;59.928;30.306;2023-12-14T00:18:16;101108.84;;;-3.51;100.00
41254;BME280;26987;59.928;30.306;2023-12-14T00:20:44;101112.09;;;-3.48;100.00
41254;BME280;26987;59.928;30.306;2023-12-14T00:23:13;101113.38;;;-3.40;100.00
41254;BME280;26987;59.928;30.306;2023-12-14T00:25:41;101110.00;;;-3.43;100.00
41254;BME280;26987;59.928;30.306;2023-12-14T00:28:09;101117.25;;;-3.33;100.00
41254;BME280;26987;59.928;30.306;2023-12-14T00:30:37;101104.75;;;-3.30;100.00
41254;BME280;26987;59.928;30.306;2023-12-14T00:33:05;101117.53;;;-3.25;100.00
41254;BME280;26987;59.928;30.306;2023-12-14T00:35:33;101127.59;;;-3.19;100.00
41254;BME280;26987;59.928;30.306;2023-12-14T00:38:01;101119.63;;;-3.17;100.00
41254;BME280;26987;59.928;30.306;2023-12-14T00:40:30;101109.88;;;-3.28;100.00
41254;BME280;26987;59.928;30.306;2023-12-14T00:42:58;101127.59;;;-3.19;100.00
41254;BME280;26987;59.928;30.306;2023-12-14T00:45:26;101107.38;;;-3.30;100.00
41254;BME280;26987;59.928;30.306;2023-12-14T00:47:54;101093.84;;;-3.36;100.00
41254;BME280;26987;59.928;30.306;2023-12-14T00:50:22;101118.56;;;-3.14;100.00
41254;BME280;26987;59.928;30.306;2023-12-14T00:52:50;101133.88;;;-3.08;100.00
41254;BME280;26987;59.928;30.306;2023-12-14T00:55:18;101134.00;;;-3.10;100.00
41254;BME280;26987;59.928;30.306;2023-12-14T00:57:47;101135.28;;;-3.15;100.00
41254;BME280;26987;59.928;30.306;2023-12-14T01:00:16;101122.78;;;-3.25;100.00
41254;BME280;26987;59.928;30.306;2023-12-14T01:02:44;101127.41;;;-3.15;100.00
41254;BME280;26987;59.928;30.306;2023-12-14T01:05:17;101126.75;;;-3.19;100.00
41254;BME280;26987;59.928;30.306;2023-12-14T01:07:45;101128.78;;;-3.23;100.00
41254;BME280;26987;59.928;30.306;2023-12-14T01:10:12;101133.38;;;-3.26;100.00
41254;BME280;26987;59.928;30.306;2023-12-14T01:12:40;101135.19;;;-3.27;100.00
41254;BME280;26987;59.928;30.306;2023-12-14T01:15:10;101135.91;;;-3.25;100.00
41254;BME280;26987;59.928;30.306;2023-12-14T01:17:38;101126.78;;;-3.32;100.00
41254;BME280;26987;59.928;30.306;2023-12-14T01:20:07;101118.81;;;-3.44;100.00
41254;BME280;26987;59.928;30.306;2023-12-14T01:22:35;101135.50;;;-3.32;100.00
41254;BME280;26987;59.928;30.306;2023-12-14T01:25:04;101123.31;;;-3.46;100.00
41254;BME280;26987;59.928;30.306;2023-12-14T01:27:32;101143.38;;;-3.32;100.00
41254;BME280;26987;59.928;30.306;2023-12-14T01:30:00;101099.63;;;-3.57;100.00
41254;BME280;26987;59.928;30.306;2023-12-14T01:32:29;101142.00;;;-3.37;100.00
41254;BME280;26987;59.928;30.306;2023-12-14T01:34:57;101134.03;;;-3.49;100.00
41254;BME280;26987;59.928;30.306;2023-12-14T01:37:25;101139.38;;;-3.50;100.00
41254;BME280;26987;59.928;30.306;2023-12-14T01:39:53;101146.84;;;-3.57;100.00
41254;BME280;26987;59.928;30.306;2023-12-14T01:42:21;101142.00;;;-3.63;100.00
41254;BME280;26987;59.928;30.306;2023-12-14T01:44:49;101147.34;;;-3.65;100.00
41254;BME280;26987;59.928;30.306;2023-12-14T01:47:17;101136.63;;;-3.75;100.00
41254;BME280;26987;59.928;30.306;2023-12-14T01:49:46;101126.47;;;-3.80;100.00
41254;BME280;26987;59.928;30.306;2023-12-14T01:52:14;101146.09;;;-3.72;100.00
41254;BME280;26987;59.928;30.306;2023-12-14T01:54:44;101139.59;;;-3.67;100.00
41254;BME280;26987;59.928;30.306;2023-12-14T01:57:12;101131.81;;;-3.68;100.00
41254;BME280;26987;59.928;30.306;2023-12-14T01:59:40;101132.78;;;-3.56;100.00
41254;BME280;26987;59.928;30.306;2023-12-14T02:02:08;101140.00;;;-3.60;100.00
41254;BME280;26987;59.928;30.306;2023-12-14T02:04:36;101127.44;;;-3.68;100.00
41254;BME280;26987;59.928;30.306;2023-12-14T02:07:06;101136.34;;;-3.57;100.00
41254;BME280;26987;59.928;30.306;2023-12-14T02:09:33;101146.28;;;-3.49;100.00
41254;BME280;26987;59.928;30.306;2023-12-14T02:12:01;101123.84;;;-3.53;100.00
41254;BME280;26987;59.928;30.306;2023-12-14T02:14:29;101139.38;;;-3.50;100.00
41254;BME280;26987;59.928;30.306;2023-12-14T02:16:57;101141.28;;;-3.52;100.00
41254;BME280;26987;59.928;30.306;2023-12-14T02:19:25;101119.03;;;-3.73;100.00
41254;BME280;26987;59.928;30.306;2023-12-14T02:21:53;101142.31;;;-3.55;100.00
41254;BME280;26987;59.928;30.306;2023-12-14T02:24:22;101147.34;;;-3.52;100.00
41254;BME280;26987;59.928;30.306;2023-12-14T02:26:50;101137.16;;;-3.57;100.00
41254;BME280;26987;59.928;30.306;2023-12-14T02:29:17;101127.22;;;-3.51;100.00
41254;BME280;26987;59.928;30.306;2023-12-14T02:31:46;101136.84;;;-3.52;100.00
41254;BME280;26987;59.928;30.306;2023-12-14T02:34:14;101153.22;;;-3.48;100.00
41254;BME280;26987;59.928;30.306;2023-12-14T02:36:42;101148.59;;;-3.58;100.00
41254;BME280;26987;59.928;30.306;2023-12-14T02:39:10;101156.38;;;-3.56;100.00
41254;BME280;26987;59.928;30.306;2023-12-14T02:41:39;101116.28;;;-3.84;100.00
41254;BME280;26987;59.928;30.306;2023-12-14T02:44:07;101142.72;;;-3.74;100.00
41254;BME280;26987;59.928;30.306;2023-12-14T02:46:35;101093.63;;;-4.11;100.00
41254;BME280;26987;59.928;30.306;2023-12-14T02:49:03;101143.97;;;-3.80;100.00
41254;BME280;26987;59.928;30.306;2023-12-14T02:51:31;101143.72;;;-3.90;100.00
41254;BME280;26987;59.928;30.306;2023-12-14T02:53:58;101110.22;;;-4.25;100.00
41254;BME280;26987;59.928;30.306;2023-12-14T02:56:26;101156.16;;;-4.07;100.00
41254;BME280;26987;59.928;30.306;2023-12-14T02:58:56;101150.09;;;-4.07;100.00
41254;BME280;26987;59.928;30.306;2023-12-14T03:01:24;101141.38;;;-4.21;100.00
41254;BME280;26987;59.928;30.306;2023-12-14T03:03:51;101091.63;;;-4.48;100.00
41254;BME280;26987;59.928;30.306;2023-12-14T03:06:19;101149.81;;;-4.02;100.00
41254;BME280;26987;59.928;30.306;2023-12-14T03:08:47;101161.94;;;-4.01;100.00
41254;BME280;26987;59.928;30.306;2023-12-14T03:11:21;101157.56;;;-4.01;100.00
41254;BME280;26987;59.928;30.306;2023-12-14T03:13:50;101154.19;;;-4.03;100.00
41254;BME280;26987;59.928;30.306;2023-12-14T03:16:19;101159.22;;;-4.00;100.00
41254;BME280;26987;59.928;30.306;2023-12-14T03:18:47;101164.28;;;-3.97;100.00
41254;BME280;26987;59.928;30.306;2023-12-14T03:21:21;101160.69;;;-3.96;100.00
41254;BME280;26987;59.928;30.306;2023-12-14T03:23:50;101159.97;;;-3.98;100.00
41254;BME280;26987;59.928;30.306;2023-12-14T03:26:18;101175.81;;;-3.86;100.00
41254;BME280;26987;59.928;30.306;2023-12-14T03:28:46;101167.00;;;-3.85;100.00
41254;BME280;26987;59.928;30.306;2023-12-14T03:31:14;101137.41;;;-4.00;100.00
41254;BME280;26987;59.928;30.306;2023-12-14T03:33:45;101175.13;;;-3.75;100.00
41254;BME280;26987;59.928;30.306;2023-12-14T03:36:13;101167.66;;;-3.82;100.00
41254;BME280;26987;59.928;30.306;2023-12-14T03:38:41;101173.19;;;-3.86;100.00
41254;BME280;26987;59.928;30.306;2023-12-14T03:41:09;101178.25;;;-3.83;100.00
41254;BME280;26987;59.928;30.306;2023-12-14T03:43:37;101163.56;;;-3.86;100.00
41254;BME280;26987;59.928;30.306;2023-12-14T03:46:05;101168.28;;;-3.78;100.00
41254;BME280;26987;59.928;30.306;2023-12-14T03:48:33;101175.84;;;-3.73;100.00
41254;BME280;26987;59.928;30.306;2023-12-14T03:51:04;101156.31;;;-3.82;100.00
41254;BME280;26987;59.928;30.306;2023-12-14T03:53:32;101167.66;;;-3.69;100.00
41254;BME280;26987;59.928;30.306;2023-12-14T03:56:00;101170.19;;;-3.67;100.00
41254;BME280;26987;59.928;30.306;2023-12-14T03:58:28;101170.00;;;-3.64;100.00
41254;BME280;26987;59.928;30.306;2023-12-14T04:00:56;101179.41;;;-3.61;100.00
41254;BME280;26987;59.928;30.306;2023-12-14T04:03:24;101176.28;;;-3.67;100.00
41254;BME280;26987;59.928;30.306;2023-12-14T04:05:52;101176.91;;;-3.63;100.00
41254;BME280;26987;59.928;30.306;2023-12-14T04:08:21;101178.28;;;-3.57;100.00
41254;BME280;26987;59.928;30.306;2023-12-14T04:10:49;101183.00;;;-3.62;100.00
41254;BME280;26987;59.928;30.306;2023-12-14T04:13:17;101183.63;;;-3.59;100.00
41254;BME280;26987;59.928;30.306;2023-12-14T04:15:45;101188.13;;;-3.61;100.00
41254;BME280;26987;59.928;30.306;2023-12-14T04:18:14;101189.03;;;-3.75;100.00
41254;BME280;26987;59.928;30.306;2023-12-14T04:20:41;101189.25;;;-3.78;100.00
41254;BME280;26987;59.928;30.306;2023-12-14T04:23:09;101193.78;;;-3.80;100.00
41254;BME280;26987;59.928;30.306;2023-12-14T04:25:39;101194.28;;;-3.75;100.00
41254;BME280;26987;59.928;30.306;2023-12-14T04:28:07;101192.41;;;-3.73;100.00
41254;BME280;26987;59.928;30.306;2023-12-14T04:30:34;101198.31;;;-3.69;100.00
41254;BME280;26987;59.928;30.306;2023-12-14T04:33:02;101202.34;;;-3.78;100.00
41254;BME280;26987;59.928;30.306;2023-12-14T04:35:30;101193.63;;;-3.92;100.00
41254;BME280;26987;59.928;30.306;2023-12-14T04:38:02;101203.69;;;-3.98;100.00
41254;BME280;26987;59.928;30.306;2023-12-14T04:40:30;101191.47;;;-4.12;100.00
41254;BME280;26987;59.928;30.306;2023-12-14T04:43:00;101204.66;;;-4.14;100.00
41254;BME280;26987;59.928;30.306;2023-12-14T04:45:29;101195.19;;;-4.29;100.00
41254;BME280;26987;59.928;30.306;2023-12-14T04:47:57;101172.84;;;-4.35;100.00
41254;BME280;26987;59.928;30.306;2023-12-14T04:50:24;101154.91;;;-4.41;100.00
41254;BME280;26987;59.928;30.306;2023-12-14T04:52:52;101205.69;;;-4.16;100.00
41254;BME280;26987;59.928;30.306;2023-12-14T04:55:20;101206.84;;;-4.21;100.00
41254;BME280;26987;59.928;30.306;2023-12-14T04:57:48;101193.03;;;-4.37;100.00
41254;BME280;26987;59.928;30.306;2023-12-14T05:00:18;101205.00;;;-4.33;100.00
41254;BME280;26987;59.928;30.306;2023-12-14T05:02:47;101196.63;;;-4.38;100.00
41254;BME280;26987;59.928;30.306;2023-12-14T05:05:15;101191.75;;;-4.45;100.00
41254;BME280;26987;59.928;30.306;2023-12-14T05:07:43;101203.13;;;-4.31;100.00
41254;BME280;26987;59.928;30.306;2023-12-14T05:10:11;101157.66;;;-4.58;100.00
41254;BME280;26987;59.928;30.306;2023-12-14T05:12:39;101209.28;;;-4.18;100.00
41254;BME280;26987;59.928;30.306;2023-12-14T05:15:08;101206.94;;;-4.22;100.00
41254;BME280;26987;59.928;30.306;2023-12-14T05:17:39;101213.56;;;-4.16;100.00
41254;BME280;26987;59.928;30.306;2023-12-14T05:20:08;101214.13;;;-4.11;100.00
41254;BME280;26987;59.928;30.306;2023-12-14T05:22:45;101207.63;;;-4.06;100.00
41254;BME280;26987;59.928;30.306;2023-12-14T05:25:13;101203.09;;;-4.16;100.00
41254;BME280;26987;59.928;30.306;2023-12-14T05:27:42;101216.53;;;-4.08;100.00
41254;BME280;26987;59.928;30.306;2023-12-14T05:30:10;101214.53;;;-4.05;100.00
41254;BME280;26987;59.928;30.306;2023-12-14T05:32:40;101200.94;;;-4.10;100.00
41254;BME280;26987;59.928;30.306;2023-12-14T05:35:08;101218.22;;;-4.07;100.00
41254;BME280;26987;59.928;30.306;2023-12-14T05:37:38;101207.38;;;-4.15;100.00
41254;BME280;26987;59.928;30.306;2023-12-14T05:40:08;101215.41;;;-4.04;100.00
41254;BME280;26987;59.928;30.306;2023-12-14T05:42:37;101209.97;;;-4.01;100.00
41254;BME280;26987;59.928;30.306;2023-12-14T05:45:05;101217.91;;;-4.02;100.00
41254;BME280;26987;59.928;30.306;2023-12-14T05:47:33;101214.53;;;-4.05;100.00
41254;BME280;26987;59.928;30.306;2023-12-14T05:50:04;101221.66;;;-4.07;100.00
41254;BME280;26987;59.928;30.306;2023-12-14T05:52:32;101232.13;;;-4.07;100.00
41254;BME280;26987;59.928;30.306;2023-12-14T05:55:00;101235.38;;;-4.16;100.00
41254;BME280;26987;59.928;30.306;2023-12-14T05:57:27;101234.22;;;-4.12;100.00
41254;BME280;26987;59.928;30.306;2023-12-14T05:59:55;101232.47;;;-4.11;100.00
41254;BME280;26987;59.928;30.306;2023-12-14T06:02:23;101238.03;;;-4.03;100.00
41254;BME280;26987;59.928;30.306;2023-12-14T06:04:51;101253.47;;;-3.98;100.00
41254;BME280;26987;59.928;30.306;2023-12-14T06:07:20;101245.41;;;-3.95;100.00
41254;BME280;26987;59.928;30.306;2023-12-14T06:09:48;101251.06;;;-3.88;100.00
41254;BME280;26987;59.928;30.306;2023-12-14T06:12:16;101227.50;;;-4.16;100.00
41254;BME280;26987;59.928;30.306;2023-12-14T06:14:44;101261.72;;;-4.05;100.00
41254;BME280;26987;59.928;30.306;2023-12-14T06:17:12;101244.41;;;-4.07;100.00
41254;BME280;26987;59.928;30.306;2023-12-14T06:19:40;101261.72;;;-4.05;100.00
41254;BME280;26987;59.928;30.306;2023-12-14T06:22:08;101259.38;;;-4.09;100.00
41254;BME280;26987;59.928;30.306;2023-12-14T06:24:37;101257.34;;;-4.19;100.00
41254;BME280;26987;59.928;30.306;2023-12-14T06:27:06;101255.72;;;-4.34;100.00
41254;BME280;26987;59.928;30.306;2023-12-14T06:29:34;101268.69;;;-4.33;100.00
41254;BME280;26987;59.928;30.306;2023-12-14T06:32:05;101240.00;;;-4.49;100.00
41254;BME280;26987;59.928;30.306;2023-12-14T06:34:33;101242.44;;;-4.46;100.00
41254;BME280;26987;59.928;30.306;2023-12-14T06:37:01;101267.94;;;-4.35;100.00
41254;BME280;26987;59.928;30.306;2023-12-14T06:39:29;101263.38;;;-4.46;100.00
41254;BME280;26987;59.928;30.306;2023-12-14T06:42:12;101248.44;;;-4.58;100.00
41254;BME280;26987;59.928;30.306;2023-12-14T06:44:52;101260.59;;;-4.57;100.00
41254;BME280;26987;59.928;30.306;2023-12-14T06:47:20;101231.44;;;-4.80;100.00
41254;BME280;26987;59.928;30.306;2023-12-14T06:49:48;101277.16;;;-4.57;100.00
41254;BME280;26987;59.928;30.306;2023-12-14T06:52:16;101264.13;;;-4.73;100.00
41254;BME280;26987;59.928;30.306;2023-12-14T06:54:44;101282.66;;;-4.61;100.00
41254;BME280;26987;59.928;30.306;2023-12-14T06:57:13;101283.38;;;-4.59;100.00
41254;BME280;26987;59.928;30.306;2023-12-14T06:59:41;101286.19;;;-4.62;100.00
41254;BME280;26987;59.928;30.306;2023-12-14T07:02:09;101291.25;;;-4.74;100.00
41254;BME280;26987;59.928;30.306;2023-12-14T07:04:37;101285.84;;;-4.85;100.00
41254;BME280;26987;59.928;30.306;2023-12-14T07:07:05;101293.97;;;-4.75;100.00
41254;BME280;26987;59.928;30.306;2023-12-14T07:09:32;101296.50;;;-4.74;100.00
41254;BME280;26987;59.928;30.306;2023-12-14T07:12:00;101273.22;;;-4.93;100.00
41254;BME280;26987;59.928;30.306;2023-12-14T07:14:30;101282.38;;;-4.86;100.00
41254;BME280;26987;59.928;30.306;2023-12-14T07:16:58;101297.22;;;-4.86;100.00
41254;BME280;26987;59.928;30.306;2023-12-14T07:19:26;101288.91;;;-4.93;100.00
41254;BME280;26987;59.928;30.306;2023-12-14T07:21:54;101303.47;;;-4.89;100.00
41254;BME280;26987;59.928;30.306;2023-12-14T07:24:22;101306.19;;;-4.90;100.00
41254;BME280;26987;59.928;30.306;2023-12-14T07:26:49;101308.72;;;-4.89;100.00
41254;BME280;26987;59.928;30.306;2023-12-14T07:29:17;101309.56;;;-4.88;100.00
41254;BME280;26987;59.928;30.306;2023-12-14T07:31:46;101310.38;;;-4.88;100.00
41254;BME280;26987;59.928;30.306;2023-12-14T07:34:14;101308.72;;;-4.89;100.00
41254;BME280;26987;59.928;30.306;2023-12-14T07:36:42;101307.88;;;-4.89;100.00
41254;BME280;26987;59.928;30.306;2023-12-14T07:39:10;101301.63;;;-4.87;100.00
41254;BME280;26987;59.928;30.306;2023-12-14T07:41:38;101310.88;;;-4.81;100.00
41254;BME280;26987;59.928;30.306;2023-12-14T07:44:06;101315.00;;;-4.77;100.00
41254;BME280;26987;59.928;30.306;2023-12-14T07:46:34;101314.03;;;-4.76;100.00
41254;BME280;26987;59.928;30.306;2023-12-14T07:49:07;101307.50;;;-4.83;100.00
41254;BME280;26987;59.928;30.306;2023-12-14T07:51:39;101313.84;;;-4.87;100.00
41254;BME280;26987;59.928;30.306;2023-12-14T07:54:07;101304.50;;;-4.91;100.00
41254;BME280;26987;59.928;30.306;2023-12-14T07:56:35;101200.63;;;-5.64;100.00
41254;BME280;26987;59.928;30.306;2023-12-14T07:59:05;101304.50;;;-4.91;100.00
41254;BME280;26987;59.928;30.306;2023-12-14T08:01:36;101320.13;;;-4.75;100.00
41254;BME280;26987;59.928;30.306;2023-12-14T08:04:05;101321.72;;;-4.73;100.00
41254;BME280;26987;59.928;30.306;2023-12-14T08:06:35;101331.72;;;-4.65;100.00
41254;BME280;26987;59.928;30.306;2023-12-14T08:09:05;101338.00;;;-4.68;100.00
41254;BME280;26987;59.928;30.306;2023-12-14T08:11:33;101321.34;;;-4.81;100.00
41254;BME280;26987;59.928;30.306;2023-12-14T08:14:01;101320.50;;;-4.82;100.00
41254;BME280;26987;59.928;30.306;2023-12-14T08:16:29;101342.00;;;-4.76;100.00
41254;BME280;26987;59.928;30.306;2023-12-14T08:18:57;101313.84;;;-4.87;100.00
41254;BME280;26987;59.928;30.306;2023-12-14T08:21:25;101339.84;;;-4.70;100.00
41254;BME280;26987;59.928;30.306;2023-12-14T08:23:57;101338.09;;;-4.69;100.00
41254;BME280;26987;59.928;30.306;2023-12-14T08:26:25;101341.56;;;-4.69;100.00
41254;BME280;26987;59.928;30.306;2023-12-14T08:28:53;101345.94;;;-4.69;100.00
41254;BME280;26987;59.928;30.306;2023-12-14T08:31:21;101238.03;;;-5.33;100.00
41254;BME280;26987;59.928;30.306;2023-12-14T08:33:49;101336.38;;;-4.85;100.00
41254;BME280;26987;59.928;30.306;2023-12-14T08:36:18;101355.66;;;-4.71;100.00
41254;BME280;26987;59.928;30.306;2023-12-14T08:38:46;101350.16;;;-4.66;100.00
41254;BME280;26987;59.928;30.306;2023-12-14T08:41:15;101349.97;;;-4.63;100.00
41254;BME280;26987;59.928;30.306;2023-12-14T08:43:43;101353.16;;;-4.58;100.00
41254;BME280;26987;59.928;30.306;2023-12-14T08:46:12;101334.72;;;-4.71;100.00
41254;BME280;26987;59.928;30.306;2023-12-14T08:48:40;101348.66;;;-4.71;100.00
41254;BME280;26987;59.928;30.306;2023-12-14T08:51:08;101352.94;;;-4.84;100.00
41254;BME280;26987;59.928;30.306;2023-12-14T08:53:36;101353.78;;;-4.84;100.00
41254;BME280;26987;59.928;30.306;2023-12-14T08:56:04;101356.50;;;-4.85;100.00
41254;BME280;26987;59.928;30.306;2023-12-14T08:58:34;101357.63;;;-4.75;100.00
41254;BME280;26987;59.928;30.306;2023-12-14T09:01:02;101333.56;;;-4.82;100.00
41254;BME280;26987;59.928;30.306;2023-12-14T09:03:30;101358.25;;;-4.71;100.00
41254;BME280;26987;59.928;30.306;2023-12-14T09:05:58;101362.28;;;-4.80;100.00
41254;BME280;26987;59.928;30.306;2023-12-14T09:08:29;101363.88;;;-4.77;100.00
41254;BME280;26987;59.928;30.306;2023-12-14T09:10:57;101361.38;;;-4.79;100.00
41254;BME280;26987;59.928;30.306;2023-12-14T09:13:25;101357.81;;;-4.78;100.00
41254;BME280;26987;59.928;30.306;2023-12-14T09:15:54;101338.53;;;-4.91;100.00
41254;BME280;26987;59.928;30.306;2023-12-14T09:18:22;101362.84;;;-4.75;100.00
41254;BME280;26987;59.928;30.306;2023-12-14T09:20:50;101365.47;;;-4.75;100.00
41254;BME280;26987;59.928;30.306;2023-12-14T09:23:18;101349.38;;;-4.83;100.00
41254;BME280;26987;59.928;30.306;2023-12-14T09:25:46;101356.78;;;-4.75;100.00
41254;BME280;26987;59.928;30.306;2023-12-14T09:28:14;101361.81;;;-4.72;100.00
41254;BME280;26987;59.928;30.306;2023-12-14T09:30:42;101341.34;;;-4.80;100.00
41254;BME280;26987;59.928;30.306;2023-12-14T09:33:12;101353.88;;;-4.71;100.00
41254;BME280;26987;59.928;30.306;2023-12-14T09:35:40;101362.69;;;-4.72;100.00
41254;BME280;26987;59.928;30.306;2023-12-14T09:38:08;101354.81;;;-4.72;100.00
41254;BME280;26987;59.928;30.306;2023-12-14T09:40:39;101358.19;;;-4.70;100.00
41254;BME280;26987;59.928;30.306;2023-12-14T09:43:07;101359.59;;;-4.64;100.00
41254;BME280;26987;59.928;30.306;2023-12-14T09:45:36;101359.69;;;-4.51;100.00
41254;BME280;26987;59.928;30.306;2023-12-14T09:48:09;101341.75;;;-4.57;100.00
41254;BME280;26987;59.928;30.306;2023-12-14T09:50:39;101365.13;;;-4.39;100.00
41254;BME280;26987;59.928;30.306;2023-12-14T09:53:07;101363.16;;;-4.36;100.00
41254;BME280;26987;59.928;30.306;2023-12-14T09:55:35;101363.63;;;-4.29;100.00
41254;BME280;26987;59.928;30.306;2023-12-14T09:58:03;101360.81;;;-4.26;100.00
41254;BME280;26987;59.928;30.306;2023-12-14T10:00:35;101365.31;;;-4.28;100.00
41254;BME280;26987;59.928;30.306;2023-12-14T10:03:23;101364.75;;;-4.04;100.00
41254;BME280;26987;59.928;30.306;2023-12-14T10:05:54;101359.88;;;-4.10;100.00
41254;BME280;26987;59.928;30.306;2023-12-14T10:08:23;101363.34;;;-4.10;100.00
41254;BME280;26987;59.928;30.306;2023-12-14T10:10:52;101353.53;;;-4.21;100.00
41254;BME280;26987;59.928;30.306;2023-12-14T10:13:28;101376.34;;;-3.94;100.00
41254;BME280;26987;59.928;30.306;2023-12-14T10:16:03;101371.44;;;-3.85;100.00
41254;BME280;26987;59.928;30.306;2023-12-14T10:18:32;101375.19;;;-3.89;100.00
41254;BME280;26987;59.928;30.306;2023-12-14T10:21:06;101385.88;;;-3.93;100.00
41254;BME280;26987;59.928;30.306;2023-12-14T10:23:34;101380.56;;;-4.06;100.00
41254;BME280;26987;59.928;30.306;2023-12-14T10:26:04;101384.41;;;-4.11;100.00
41254;BME280;26987;59.928;30.306;2023-12-14T10:28:32;101376.00;;;-4.31;100.00
41254;BME280;26987;59.928;30.306;2023-12-14T10:31:00;101376.72;;;-4.44;100.00
41254;BME280;26987;59.928;30.306;2023-12-14T10:33:30;101380.66;;;-4.36;100.00
41254;BME280;26987;59.928;30.306;2023-12-14T10:35:58;101362.13;;;-4.48;100.00
41254;BME280;26987;59.928;30.306;2023-12-14T10:38:29;101374.78;;;-4.40;100.00
41254;BME280;26987;59.928;30.306;2023-12-14T10:40:58;101366.25;;;-4.44;100.00
41254;BME280;26987;59.928;30.306;2023-12-14T10:43:26;101364.94;;;-4.51;100.00
41254;BME280;26987;59.928;30.306;2023-12-14T10:45:56;101364.56;;;-4.45;100.00
41254;BME280;26987;59.928;30.306;2023-12-14T10:48:24;101367.75;;;-4.39;100.00
41254;BME280;26987;59.928;30.306;2023-12-14T10:50:53;101355.78;;;-4.44;100.00
41254;BME280;26987;59.928;30.306;2023-12-14T10:53:24;101372.78;;;-4.36;100.00
41254;BME280;26987;59.928;30.306;2023-12-14T10:55:54;101372.59;;;-4.33;100.00
41254;BME280;26987;59.928;30.306;2023-12-14T10:58:23;101368.94;;;-4.31;100.00
41254;BME280;26987;59.928;30.306;2023-12-14T11:00:59;101345.31;;;-4.44;100.00
41254;BME280;26987;59.928;30.306;2023-12-14T11:03:33;101351.47;;;-4.30;100.00
41254;BME280;26987;59.928;30.306;2023-12-14T11:06:01;101376.63;;;-3.98;100.00
41254;BME280;26987;59.928;30.306;2023-12-14T11:08:34;101374.16;;;-3.87;100.00
41254;BME280;26987;59.928;30.306;2023-12-14T11:11:05;101365.94;;;-3.95;100.00
41254;BME280;26987;59.928;30.306;2023-12-14T11:13:39;101368.09;;;-4.02;100.00
41254;BME280;26987;59.928;30.306;2023-12-14T11:16:08;101377.72;;;-3.88;100.00
41254;BME280;26987;59.928;30.306;2023-12-14T11:18:36;101372.66;;;-3.91;100.00
41254;BME280;26987;59.928;30.306;2023-12-14T11:21:04;101337.53;;;-4.16;100.00
41254;BME280;26987;59.928;30.306;2023-12-14T11:23:35;101367.75;;;-4.10;100.00
41254;BME280;26987;59.928;30.306;2023-12-14T11:26:09;101375.84;;;-4.00;100.00
41254;BME280;26987;59.928;30.306;2023-12-14T11:28:38;101369.69;;;-3.99;100.00
41254;BME280;26987;59.928;30.306;2023-12-14T11:31:10;101369.41;;;-4.09;100.00
41254;BME280;26987;59.928;30.306;2023-12-14T11:33:38;101385.13;;;-4.09;100.00
41254;BME280;26987;59.928;30.306;2023-12-14T11:36:07;101387.28;;;-4.01;100.00
41254;BME280;26987;59.928;30.306;2023-12-14T11:38:36;101360.72;;;-4.10;100.00
41254;BME280;26987;59.928;30.306;2023-12-14T11:41:05;101374.94;;;-3.99;100.00
41254;BME280;26987;59.928;30.306;2023-12-14T11:43:39;101392.59;;;-3.88;100.00
41254;BME280;26987;59.928;30.306;2023-12-14T11:46:07;101388.22;;;-4.02;100.00
41254;BME280;26987;59.928;30.306;2023-12-14T11:48:36;101379.06;;;-4.24;100.00
41254;BME280;26987;59.928;30.306;2023-12-14T11:51:06;101405.16;;;-4.23;100.00
41254;BME280;26987;59.928;30.306;2023-12-14T11:53:35;101403.00;;;-4.31;100.00
41254;BME280;26987;59.928;30.306;2023-12-14T11:56:07;101407.41;;;-4.31;100.00
41254;BME280;26987;59.928;30.306;2023-12-14T11:58:39;101395.22;;;-4.47;100.00
41254;BME280;26987;59.928;30.306;2023-12-14T12:01:35;101413.56;;;-4.32;100.00
41254;BME280;26987;59.928;30.306;2023-12-14T12:04:30;101417.88;;;-4.16;100.00
41254;BME280;26987;59.928;30.306;2023-12-14T12:07:11;101335.75;;;-4.74;100.00
41254;BME280;26987;59.928;30.306;2023-12-14T12:10:07;101336.69;;;-4.75;100.00
41254;BME280;26987;59.928;30.306;2023-12-14T12:13:14;101413.50;;;-4.16;100.00
41254;BME280;26987;59.928;30.306;2023-12-14T12:15:47;101414.13;;;-4.12;100.00
41254;BME280;26987;59.928;30.306;2023-12-14T12:18:18;101381.31;;;-4.33;100.00
41254;BME280;26987;59.928;30.306;2023-12-14T12:20:47;101392.34;;;-4.27;100.00
41254;BME280;26987;59.928;30.306;2023-12-14T12:23:45;101380.09;;;-4.41;100.00
41254;BME280;26987;59.928;30.306;2023-12-14T12:26:16;101403.66;;;-4.41;100.00
41254;BME280;26987;59.928;30.306;2023-12-14T12:28:48;101418.44;;;-4.40;100.00
41254;BME280;26987;59.928;30.306;2023-12-14T12:31:22;101426.97;;;-4.37;100.00
41254;BME280;26987;59.928;30.306;2023-12-14T12:33:51;101355.91;;;-4.90;100.00
41254;BME280;26987;59.928;30.306;2023-12-14T12:36:25;101422.28;;;-4.46;100.00
41254;BME280;26987;59.928;30.306;2023-12-14T12:38:55;101364.72;;;-4.77;100.00
41254;BME280;26987;59.928;30.306;2023-12-14T12:41:23;101442.19;;;-4.29;100.00